East Lansing, MI (48823)

4:22 PM EDT on April 27, 2017 (GMT -0400)
Meadowbrook | | Change Station
Active Advisory: Flood Advisory Active Notice: Flood Advisory

Elev 869 ft 42.77 °N, 84.41 °W | Updated 7 minutes ago

Overcast
Overcast
58.2 °F
Feels Like 58.2 °F
N
8.0
Wind Variable Wind from West
Gusts 17.0 mph

Today
High -- | Low -- °F
--% Chance of Precip.
Yesterday
High -- | Low -- °F
Precip. -- in
Pressure 29.58 in
Visibility 10.0 miles
Clouds Mostly Cloudy 3700 ft
Overcast 4600 ft
Dew Point 46 °F
Humidity 64%
Rainfall 0.00 in
Snow Depth Not available.
6:37 AM 8:34 PM
Waxing Crescent, 3% visible
METAR KLAN 271953Z 24019G24KT 10SM BKN037 OVC046 15/06 A2959 RMK AO2 PK WND 23029/1856 SLP017 T01500056
Pressure 29.58 in
Visibility 10.0 miles
Clouds Mostly Cloudy 3700 ft
Overcast 4600 ft
Dew Point 46 °F
Humidity 64%
Rainfall 0.00 in
Snow Depth Not available.
6:37 AM 8:34 PM
Waxing Crescent, 3% visible
METAR KLAN 271953Z 24019G24KT 10SM BKN037 OVC046 15/06 A2959 RMK AO2 PK WND 23029/1856 SLP017 T01500056

Get Your Daily Forecast Email!

Thanks for signing up!

Be on the lookout for a verification email in your inbox.

You'll start receiving severe weather alerts in your inbox..

×

10-Day Weather Forecast

Almanac

Astronomy

Apr. 27, 2017 Rise Set
Actual Time
Civil Twilight
Nautical Twilight
Astronomical Twilight
Moon
Length of Visible Light
Length of Day
Tomorrow will be .
, % of the Moon is Illuminated

Today's Extremes

State Highs State Lows

Community

WunderPhotos

WunderBlog® & News

Nearby

Air Quality

  Air Quality AQ Index Pollutant
Not available.

Snow Depth

Station Depth Elevation

Earthquake Activity

City Distance Mag. Time & Date
Minimum magnitude displayed is 2.5.

Coastal Water Temperatures

Place Temperature

Stations

Nearby Weather Stations

Station Location Temp. Windchill Dew Point Humidity Wind Precip. Elev Updated Type
                   

Watches & Warnings

Flood Advisory
Issued: 10:28 AM EDT Apr. 27, 2017 – National Weather Service

The flood advisory is extended for
the Maple River at Maple Rapids
* until late Saturday night.
* At 10 am Thursday the stage was 7.6 feet.
* Bankfull stage is 7.0 feet.
* Flood stage is 9.0 feet.
* Forecast, the river will continue to fall.
* Impact, at 7.0 feet... river is bankfull. Expect minor flooding in
low lying pastures, farmland, and wooded areas adjacent to the
river.


Lat... Lon 4302 8495 4314 8471 4317 8456 4310 8457
      4308 8468 4298 8493




1028 am EDT Thu Apr 27 2017

The flood advisory continues for
the Looking Glass river near Eagle
* until Sunday afternoon.
* At 09 am Thursday the stage was 5.1 feet.
* Bankfull stage is 5.0 feet.
* Flood stage is 7.0 feet.
* Forecast, the river will continue to fall.
* Impact, at 5.0 feet... river is bankfull.


Lat... Lon 4290 8489 4286 8474 4287 8455 4281 8455
      4279 8474 4283 8489